sensor_id;sensor_type;location;lat;lon;timestamp;P1;durP1;ratioP1;P2;durP2;ratioP2
12206;SDS011;6166;42.806;23.408;2022-07-29T00:01:22;9.88;;;8.95;;
12206;SDS011;6166;42.806;23.408;2022-07-29T00:03:48;9.50;;;8.70;;
12206;SDS011;6166;42.806;23.408;2022-07-29T00:06:15;10.27;;;9.13;;
12206;SDS011;6166;42.806;23.408;2022-07-29T00:08:42;10.00;;;8.95;;
12206;SDS011;6166;42.806;23.408;2022-07-29T00:11:10;9.98;;;8.73;;
12206;SDS011;6166;42.806;23.408;2022-07-29T00:13:37;9.88;;;8.98;;
12206;SDS011;6166;42.806;23.408;2022-07-29T00:16:04;11.98;;;9.18;;
12206;SDS011;6166;42.806;23.408;2022-07-29T00:18:31;10.73;;;9.73;;
12206;SDS011;6166;42.806;23.408;2022-07-29T00:20:58;9.73;;;8.85;;
12206;SDS011;6166;42.806;23.408;2022-07-29T00:23:24;11.18;;;10.00;;
12206;SDS011;6166;42.806;23.408;2022-07-29T00:25:51;11.93;;;10.77;;
12206;SDS011;6166;42.806;23.408;2022-07-29T00:28:19;11.95;;;10.90;;
12206;SDS011;6166;42.806;23.408;2022-07-29T00:30:46;14.20;;;11.63;;
12206;SDS011;6166;42.806;23.408;2022-07-29T00:33:13;13.25;;;11.73;;
12206;SDS011;6166;42.806;23.408;2022-07-29T00:35:39;12.23;;;10.93;;
12206;SDS011;6166;42.806;23.408;2022-07-29T00:38:12;9.90;;;8.90;;
12206;SDS011;6166;42.806;23.408;2022-07-29T00:40:39;10.52;;;9.52;;
12206;SDS011;6166;42.806;23.408;2022-07-29T00:43:08;9.75;;;8.80;;
12206;SDS011;6166;42.806;23.408;2022-07-29T00:45:36;10.85;;;9.85;;
12206;SDS011;6166;42.806;23.408;2022-07-29T00:48:03;10.65;;;9.63;;
12206;SDS011;6166;42.806;23.408;2022-07-29T00:50:32;9.85;;;9.05;;
12206;SDS011;6166;42.806;23.408;2022-07-29T00:52:59;10.20;;;9.30;;
12206;SDS011;6166;42.806;23.408;2022-07-29T00:55:26;10.35;;;9.45;;
12206;SDS011;6166;42.806;23.408;2022-07-29T00:57:53;10.20;;;9.13;;
12206;SDS011;6166;42.806;23.408;2022-07-29T01:00:21;10.55;;;9.55;;
12206;SDS011;6166;42.806;23.408;2022-07-29T01:02:51;10.52;;;9.63;;
12206;SDS011;6166;42.806;23.408;2022-07-29T01:05:18;11.27;;;10.18;;
12206;SDS011;6166;42.806;23.408;2022-07-29T01:07:46;10.80;;;9.88;;
12206;SDS011;6166;42.806;23.408;2022-07-29T01:10:15;10.80;;;9.80;;
12206;SDS011;6166;42.806;23.408;2022-07-29T01:12:43;11.20;;;10.20;;
12206;SDS011;6166;42.806;23.408;2022-07-29T01:15:12;11.80;;;10.60;;
12206;SDS011;6166;42.806;23.408;2022-07-29T01:17:41;10.88;;;9.88;;
12206;SDS011;6166;42.806;23.408;2022-07-29T01:20:15;11.25;;;9.85;;
12206;SDS011;6166;42.806;23.408;2022-07-29T01:23:06;11.13;;;10.13;;
12206;SDS011;6166;42.806;23.408;2022-07-29T01:26:00;11.75;;;10.05;;
12206;SDS011;6166;42.806;23.408;2022-07-29T01:28:49;11.15;;;10.02;;
12206;SDS011;6166;42.806;23.408;2022-07-29T01:31:27;10.98;;;10.02;;
12206;SDS011;6166;42.806;23.408;2022-07-29T01:34:00;14.73;;;11.00;;
12206;SDS011;6166;42.806;23.408;2022-07-29T01:36:31;12.10;;;10.77;;
12206;SDS011;6166;42.806;23.408;2022-07-29T01:39:04;12.07;;;10.98;;
12206;SDS011;6166;42.806;23.408;2022-07-29T01:41:35;11.15;;;10.15;;
12206;SDS011;6166;42.806;23.408;2022-07-29T01:44:10;11.35;;;10.25;;
12206;SDS011;6166;42.806;23.408;2022-07-29T01:46:41;11.43;;;10.43;;
12206;SDS011;6166;42.806;23.408;2022-07-29T01:49:15;11.73;;;10.50;;
12206;SDS011;6166;42.806;23.408;2022-07-29T01:51:47;11.35;;;10.35;;
12206;SDS011;6166;42.806;23.408;2022-07-29T01:54:18;12.07;;;10.85;;
12206;SDS011;6166;42.806;23.408;2022-07-29T01:56:51;11.63;;;10.50;;
12206;SDS011;6166;42.806;23.408;2022-07-29T01:59:21;12.55;;;11.27;;
12206;SDS011;6166;42.806;23.408;2022-07-29T02:01:49;11.27;;;10.27;;
12206;SDS011;6166;42.806;23.408;2022-07-29T02:04:19;11.85;;;10.65;;
12206;SDS011;6166;42.806;23.408;2022-07-29T02:06:47;12.80;;;11.50;;
12206;SDS011;6166;42.806;23.408;2022-07-29T02:09:17;11.73;;;10.63;;
12206;SDS011;6166;42.806;23.408;2022-07-29T02:11:47;11.60;;;10.60;;
12206;SDS011;6166;42.806;23.408;2022-07-29T02:14:17;12.45;;;11.30;;
12206;SDS011;6166;42.806;23.408;2022-07-29T02:16:48;12.10;;;10.90;;
12206;SDS011;6166;42.806;23.408;2022-07-29T02:19:18;11.07;;;9.98;;
12206;SDS011;6166;42.806;23.408;2022-07-29T02:21:48;12.23;;;10.98;;
12206;SDS011;6166;42.806;23.408;2022-07-29T02:24:19;11.18;;;9.60;;
12206;SDS011;6166;42.806;23.408;2022-07-29T02:26:49;10.38;;;9.48;;
12206;SDS011;6166;42.806;23.408;2022-07-29T02:29:19;10.57;;;9.68;;
12206;SDS011;6166;42.806;23.408;2022-07-29T02:31:50;11.35;;;10.13;;
12206;SDS011;6166;42.806;23.408;2022-07-29T02:34:18;10.90;;;9.90;;
12206;SDS011;6166;42.806;23.408;2022-07-29T02:36:46;10.90;;;9.90;;
12206;SDS011;6166;42.806;23.408;2022-07-29T02:39:15;11.15;;;10.13;;
12206;SDS011;6166;42.806;23.408;2022-07-29T02:41:45;10.77;;;9.63;;
12206;SDS011;6166;42.806;23.408;2022-07-29T02:44:14;11.05;;;9.95;;
12206;SDS011;6166;42.806;23.408;2022-07-29T02:46:45;10.23;;;9.25;;
12206;SDS011;6166;42.806;23.408;2022-07-29T02:49:18;11.40;;;9.63;;
12206;SDS011;6166;42.806;23.408;2022-07-29T02:51:56;11.63;;;10.50;;
12206;SDS011;6166;42.806;23.408;2022-07-29T02:54:28;12.02;;;10.82;;
12206;SDS011;6166;42.806;23.408;2022-07-29T02:57:00;13.00;;;10.32;;
12206;SDS011;6166;42.806;23.408;2022-07-29T02:59:34;11.95;;;10.85;;
12206;SDS011;6166;42.806;23.408;2022-07-29T03:02:03;11.27;;;10.27;;
12206;SDS011;6166;42.806;23.408;2022-07-29T03:04:34;10.25;;;9.35;;
12206;SDS011;6166;42.806;23.408;2022-07-29T03:07:03;9.98;;;9.18;;
12206;SDS011;6166;42.806;23.408;2022-07-29T03:09:31;10.30;;;9.40;;
12206;SDS011;6166;42.806;23.408;2022-07-29T03:11:58;10.50;;;9.60;;
12206;SDS011;6166;42.806;23.408;2022-07-29T03:14:29;9.68;;;8.70;;
12206;SDS011;6166;42.806;23.408;2022-07-29T03:16:57;9.90;;;7.82;;
12206;SDS011;6166;42.806;23.408;2022-07-29T03:19:25;8.45;;;7.53;;
12206;SDS011;6166;42.806;23.408;2022-07-29T03:21:54;9.45;;;8.52;;
12206;SDS011;6166;42.806;23.408;2022-07-29T03:24:29;8.30;;;7.25;;
12206;SDS011;6166;42.806;23.408;2022-07-29T03:26:58;9.13;;;7.32;;
12206;SDS011;6166;42.806;23.408;2022-07-29T03:29:28;7.75;;;7.05;;
12206;SDS011;6166;42.806;23.408;2022-07-29T03:31:55;8.80;;;6.90;;
12206;SDS011;6166;42.806;23.408;2022-07-29T03:34:22;7.60;;;6.90;;
12206;SDS011;6166;42.806;23.408;2022-07-29T03:36:49;7.70;;;7.00;;
12206;SDS011;6166;42.806;23.408;2022-07-29T03:39:18;7.88;;;7.18;;
12206;SDS011;6166;42.806;23.408;2022-07-29T03:41:48;7.78;;;7.07;;
12206;SDS011;6166;42.806;23.408;2022-07-29T03:44:18;6.97;;;6.35;;
12206;SDS011;6166;42.806;23.408;2022-07-29T03:46:47;7.57;;;6.88;;
12206;SDS011;6166;42.806;23.408;2022-07-29T03:49:18;7.07;;;6.45;;
12206;SDS011;6166;42.806;23.408;2022-07-29T03:51:46;6.63;;;5.97;;
12206;SDS011;6166;42.806;23.408;2022-07-29T03:54:13;8.00;;;7.15;;
12206;SDS011;6166;42.806;23.408;2022-07-29T03:56:42;7.88;;;7.03;;
12206;SDS011;6166;42.806;23.408;2022-07-29T03:59:12;7.32;;;6.53;;
12206;SDS011;6166;42.806;23.408;2022-07-29T04:01:40;7.32;;;6.65;;
12206;SDS011;6166;42.806;23.408;2022-07-29T04:04:08;7.32;;;6.63;;
12206;SDS011;6166;42.806;23.408;2022-07-29T04:06:38;7.65;;;6.95;;
12206;SDS011;6166;42.806;23.408;2022-07-29T04:09:10;9.15;;;8.25;;
12206;SDS011;6166;42.806;23.408;2022-07-29T04:11:38;10.35;;;9.25;;
12206;SDS011;6166;42.806;23.408;2022-07-29T04:14:07;11.98;;;10.50;;
12206;SDS011;6166;42.806;23.408;2022-07-29T04:16:34;12.38;;;11.18;;
12206;SDS011;6166;42.806;23.408;2022-07-29T04:19:01;10.68;;;9.70;;
12206;SDS011;6166;42.806;23.408;2022-07-29T04:21:28;11.95;;;10.75;;
12206;SDS011;6166;42.806;23.408;2022-07-29T04:23:55;12.95;;;11.43;;
12206;SDS011;6166;42.806;23.408;2022-07-29T04:26:21;11.43;;;10.32;;
12206;SDS011;6166;42.806;23.408;2022-07-29T04:28:48;11.98;;;10.65;;
12206;SDS011;6166;42.806;23.408;2022-07-29T04:31:16;11.38;;;10.27;;
12206;SDS011;6166;42.806;23.408;2022-07-29T04:33:44;10.95;;;9.85;;
12206;SDS011;6166;42.806;23.408;2022-07-29T04:36:11;9.23;;;8.43;;
12206;SDS011;6166;42.806;23.408;2022-07-29T04:38:37;8.52;;;7.70;;
12206;SDS011;6166;42.806;23.408;2022-07-29T04:41:04;6.13;;;5.63;;
12206;SDS011;6166;42.806;23.408;2022-07-29T04:43:35;6.22;;;5.63;;
12206;SDS011;6166;42.806;23.408;2022-07-29T04:46:07;7.05;;;5.47;;
12206;SDS011;6166;42.806;23.408;2022-07-29T04:48:35;4.70;;;4.38;;
12206;SDS011;6166;42.806;23.408;2022-07-29T04:51:01;5.65;;;4.72;;
12206;SDS011;6166;42.806;23.408;2022-07-29T04:53:28;5.40;;;4.93;;
12206;SDS011;6166;42.806;23.408;2022-07-29T04:55:55;5.53;;;5.10;;
12206;SDS011;6166;42.806;23.408;2022-07-29T04:58:22;4.60;;;4.25;;
12206;SDS011;6166;42.806;23.408;2022-07-29T05:00:49;4.53;;;4.05;;
12206;SDS011;6166;42.806;23.408;2022-07-29T05:03:16;4.90;;;4.40;;
12206;SDS011;6166;42.806;23.408;2022-07-29T05:05:49;7.03;;;4.65;;
12206;SDS011;6166;42.806;23.408;2022-07-29T05:08:43;5.03;;;4.63;;
12206;SDS011;6166;42.806;23.408;2022-07-29T05:11:11;5.68;;;4.55;;
12206;SDS011;6166;42.806;23.408;2022-07-29T05:13:46;5.90;;;5.32;;
12206;SDS011;6166;42.806;23.408;2022-07-29T05:16:15;10.70;;;8.82;;
12206;SDS011;6166;42.806;23.408;2022-07-29T05:18:41;5.32;;;4.82;;
12206;SDS011;6166;42.806;23.408;2022-07-29T05:21:09;7.90;;;7.30;;
12206;SDS011;6166;42.806;23.408;2022-07-29T05:23:38;8.45;;;7.72;;
12206;SDS011;6166;42.806;23.408;2022-07-29T05:26:04;7.10;;;6.53;;
12206;SDS011;6166;42.806;23.408;2022-07-29T05:28:32;6.05;;;5.32;;
12206;SDS011;6166;42.806;23.408;2022-07-29T05:30:59;9.45;;;8.55;;
12206;SDS011;6166;42.806;23.408;2022-07-29T05:33:26;10.10;;;9.20;;
12206;SDS011;6166;42.806;23.408;2022-07-29T05:36:05;9.40;;;8.50;;
12206;SDS011;6166;42.806;23.408;2022-07-29T05:38:33;8.40;;;7.70;;
12206;SDS011;6166;42.806;23.408;2022-07-29T05:41:00;9.48;;;7.93;;
12206;SDS011;6166;42.806;23.408;2022-07-29T05:43:27;6.85;;;6.25;;
12206;SDS011;6166;42.806;23.408;2022-07-29T05:45:54;7.55;;;6.50;;
12206;SDS011;6166;42.806;23.408;2022-07-29T05:48:21;7.38;;;6.78;;
12206;SDS011;6166;42.806;23.408;2022-07-29T05:50:47;7.03;;;6.45;;
12206;SDS011;6166;42.806;23.408;2022-07-29T05:53:14;6.88;;;6.22;;
12206;SDS011;6166;42.806;23.408;2022-07-29T05:55:43;6.85;;;5.63;;
12206;SDS011;6166;42.806;23.408;2022-07-29T05:58:12;5.60;;;5.20;;
12206;SDS011;6166;42.806;23.408;2022-07-29T06:00:39;4.85;;;4.45;;
12206;SDS011;6166;42.806;23.408;2022-07-29T06:03:08;3.80;;;3.50;;
12206;SDS011;6166;42.806;23.408;2022-07-29T06:05:39;4.07;;;3.67;;
12206;SDS011;6166;42.806;23.408;2022-07-29T06:08:06;4.53;;;3.70;;
12206;SDS011;6166;42.806;23.408;2022-07-29T06:10:34;5.18;;;4.75;;
12206;SDS011;6166;42.806;23.408;2022-07-29T06:13:03;4.43;;;3.80;;
12206;SDS011;6166;42.806;23.408;2022-07-29T06:15:30;3.95;;;3.65;;
12206;SDS011;6166;42.806;23.408;2022-07-29T06:17:59;4.32;;;3.95;;
12206;SDS011;6166;42.806;23.408;2022-07-29T06:20:32;4.07;;;3.78;;
12206;SDS011;6166;42.806;23.408;2022-07-29T06:22:59;3.38;;;3.17;;
12206;SDS011;6166;42.806;23.408;2022-07-29T06:25:26;6.18;;;4.35;;
12206;SDS011;6166;42.806;23.408;2022-07-29T06:27:54;4.25;;;3.95;;
12206;SDS011;6166;42.806;23.408;2022-07-29T06:30:24;3.97;;;3.67;;
12206;SDS011;6166;42.806;23.408;2022-07-29T06:32:53;3.92;;;3.40;;
12206;SDS011;6166;42.806;23.408;2022-07-29T06:35:20;4.68;;;4.38;;
12206;SDS011;6166;42.806;23.408;2022-07-29T06:37:47;4.07;;;3.78;;
12206;SDS011;6166;42.806;23.408;2022-07-29T06:40:14;3.53;;;3.33;;
12206;SDS011;6166;42.806;23.408;2022-07-29T06:42:59;4.53;;;3.95;;
12206;SDS011;6166;42.806;23.408;2022-07-29T06:45:27;4.32;;;3.92;;
12206;SDS011;6166;42.806;23.408;2022-07-29T06:47:54;4.45;;;4.05;;
12206;SDS011;6166;42.806;23.408;2022-07-29T06:50:20;3.67;;;3.38;;
12206;SDS011;6166;42.806;23.408;2022-07-29T06:52:47;3.97;;;3.67;;
12206;SDS011;6166;42.806;23.408;2022-07-29T06:55:14;6.28;;;3.88;;
12206;SDS011;6166;42.806;23.408;2022-07-29T06:57:40;4.18;;;3.45;;
12206;SDS011;6166;42.806;23.408;2022-07-29T07:00:08;6.65;;;3.65;;
12206;SDS011;6166;42.806;23.408;2022-07-29T07:02:39;3.97;;;3.63;;
12206;SDS011;6166;42.806;23.408;2022-07-29T07:05:06;4.00;;;3.75;;
12206;SDS011;6166;42.806;23.408;2022-07-29T07:07:40;3.72;;;3.50;;
12206;SDS011;6166;42.806;23.408;2022-07-29T07:10:08;4.20;;;3.90;;
12206;SDS011;6166;42.806;23.408;2022-07-29T07:12:34;4.32;;;3.92;;
12206;SDS011;6166;42.806;23.408;2022-07-29T07:15:06;4.50;;;4.05;;
12206;SDS011;6166;42.806;23.408;2022-07-29T07:17:37;5.03;;;3.72;;
12206;SDS011;6166;42.806;23.408;2022-07-29T07:20:04;4.38;;;4.00;;
12206;SDS011;6166;42.806;23.408;2022-07-29T07:22:31;4.20;;;3.70;;
12206;SDS011;6166;42.806;23.408;2022-07-29T07:24:58;4.30;;;4.00;;
12206;SDS011;6166;42.806;23.408;2022-07-29T07:27:28;4.28;;;3.97;;
12206;SDS011;6166;42.806;23.408;2022-07-29T07:29:58;4.22;;;3.83;;
12206;SDS011;6166;42.806;23.408;2022-07-29T07:32:24;3.85;;;3.47;;
12206;SDS011;6166;42.806;23.408;2022-07-29T07:34:52;4.50;;;4.10;;
12206;SDS011;6166;42.806;23.408;2022-07-29T07:37:19;4.80;;;4.40;;
12206;SDS011;6166;42.806;23.408;2022-07-29T07:39:46;4.05;;;3.72;;
12206;SDS011;6166;42.806;23.408;2022-07-29T07:42:12;4.75;;;4.35;;
12206;SDS011;6166;42.806;23.408;2022-07-29T07:44:39;4.53;;;4.05;;
12206;SDS011;6166;42.806;23.408;2022-07-29T07:47:06;4.10;;;3.80;;
12206;SDS011;6166;42.806;23.408;2022-07-29T07:49:33;4.63;;;4.20;;
12206;SDS011;6166;42.806;23.408;2022-07-29T07:52:01;5.15;;;4.65;;
12206;SDS011;6166;42.806;23.408;2022-07-29T07:54:32;3.72;;;3.40;;
12206;SDS011;6166;42.806;23.408;2022-07-29T07:57:01;4.30;;;4.00;;
12206;SDS011;6166;42.806;23.408;2022-07-29T07:59:31;4.00;;;3.60;;
12206;SDS011;6166;42.806;23.408;2022-07-29T08:01:59;4.35;;;3.95;;
12206;SDS011;6166;42.806;23.408;2022-07-29T08:04:31;4.22;;;3.90;;
12206;SDS011;6166;42.806;23.408;2022-07-29T08:06:58;4.40;;;4.10;;
12206;SDS011;6166;42.806;23.408;2022-07-29T08:09:30;4.93;;;4.13;;
12206;SDS011;6166;42.806;23.408;2022-07-29T08:11:59;5.05;;;4.30;;
12206;SDS011;6166;42.806;23.408;2022-07-29T08:14:28;4.15;;;3.78;;
12206;SDS011;6166;42.806;23.408;2022-07-29T08:16:55;4.30;;;3.55;;
12206;SDS011;6166;42.806;23.408;2022-07-29T08:19:22;5.05;;;3.95;;
12206;SDS011;6166;42.806;23.408;2022-07-29T08:21:49;4.35;;;4.05;;
12206;SDS011;6166;42.806;23.408;2022-07-29T08:24:19;4.28;;;3.80;;
12206;SDS011;6166;42.806;23.408;2022-07-29T08:27:05;4.55;;;4.13;;
12206;SDS011;6166;42.806;23.408;2022-07-29T08:29:36;4.80;;;3.85;;
12206;SDS011;6166;42.806;23.408;2022-07-29T08:32:05;4.47;;;4.10;;
12206;SDS011;6166;42.806;23.408;2022-07-29T08:34:32;5.55;;;4.10;;
12206;SDS011;6166;42.806;23.408;2022-07-29T08:36:59;3.90;;;3.50;;
12206;SDS011;6166;42.806;23.408;2022-07-29T08:39:34;3.80;;;3.47;;
12206;SDS011;6166;42.806;23.408;2022-07-29T08:42:03;3.97;;;3.67;;
12206;SDS011;6166;42.806;23.408;2022-07-29T08:44:32;5.53;;;3.75;;
12206;SDS011;6166;42.806;23.408;2022-07-29T08:46:59;4.28;;;3.97;;
12206;SDS011;6166;42.806;23.408;2022-07-29T08:49:26;3.60;;;3.40;;
12206;SDS011;6166;42.806;23.408;2022-07-29T08:51:54;4.40;;;4.00;;
12206;SDS011;6166;42.806;23.408;2022-07-29T08:54:28;4.55;;;3.95;;
12206;SDS011;6166;42.806;23.408;2022-07-29T08:56:56;3.38;;;3.15;;
12206;SDS011;6166;42.806;23.408;2022-07-29T08:59:24;4.03;;;3.55;;
12206;SDS011;6166;42.806;23.408;2022-07-29T09:02:04;3.67;;;3.17;;
12206;SDS011;6166;42.806;23.408;2022-07-29T09:04:38;3.80;;;3.50;;
12206;SDS011;6166;42.806;23.408;2022-07-29T09:07:05;3.35;;;3.10;;
12206;SDS011;6166;42.806;23.408;2022-07-29T09:09:33;2.70;;;2.50;;
12206;SDS011;6166;42.806;23.408;2022-07-29T09:12:23;6.13;;;3.53;;
12206;SDS011;6166;42.806;23.408;2022-07-29T09:14:56;4.05;;;3.70;;
12206;SDS011;6166;42.806;23.408;2022-07-29T09:20:10;4.13;;;3.83;;
12206;SDS011;6166;42.806;23.408;2022-07-29T09:22:38;3.92;;;3.63;;
12206;SDS011;6166;42.806;23.408;2022-07-29T09:25:05;4.05;;;3.72;;
12206;SDS011;6166;42.806;23.408;2022-07-29T09:27:32;4.00;;;3.70;;
12206;SDS011;6166;42.806;23.408;2022-07-29T09:30:00;4.03;;;3.72;;
12206;SDS011;6166;42.806;23.408;2022-07-29T09:32:32;4.10;;;3.80;;
12206;SDS011;6166;42.806;23.408;2022-07-29T09:35:17;4.35;;;3.70;;
12206;SDS011;6166;42.806;23.408;2022-07-29T09:37:45;3.90;;;3.63;;
12206;SDS011;6166;42.806;23.408;2022-07-29T09:40:14;4.22;;;3.92;;
12206;SDS011;6166;42.806;23.408;2022-07-29T09:42:48;3.90;;;3.60;;
12206;SDS011;6166;42.806;23.408;2022-07-29T09:48:14;3.20;;;2.90;;
12206;SDS011;6166;42.806;23.408;2022-07-29T09:50:45;5.97;;;3.25;;
12206;SDS011;6166;42.806;23.408;2022-07-29T09:53:29;4.07;;;3.78;;
12206;SDS011;6166;42.806;23.408;2022-07-29T09:55:57;3.92;;;3.63;;
12206;SDS011;6166;42.806;23.408;2022-07-29T09:58:25;3.95;;;3.65;;
12206;SDS011;6166;42.806;23.408;2022-07-29T10:00:54;3.85;;;3.55;;
12206;SDS011;6166;42.806;23.408;2022-07-29T10:03:27;3.55;;;3.35;;
12206;SDS011;6166;42.806;23.408;2022-07-29T10:06:08;3.85;;;3.55;;
12206;SDS011;6166;42.806;23.408;2022-07-29T10:08:38;3.47;;;3.28;;
12206;SDS011;6166;42.806;23.408;2022-07-29T10:11:10;3.80;;;3.50;;
12206;SDS011;6166;42.806;23.408;2022-07-29T10:13:38;4.10;;;3.75;;
12206;SDS011;6166;42.806;23.408;2022-07-29T10:16:06;3.60;;;3.22;;
12206;SDS011;6166;42.806;23.408;2022-07-29T10:18:33;3.80;;;3.50;;
12206;SDS011;6166;42.806;23.408;2022-07-29T10:21:02;3.50;;;3.20;;
12206;SDS011;6166;42.806;23.408;2022-07-29T10:23:36;4.07;;;3.78;;
12206;SDS011;6166;42.806;23.408;2022-07-29T10:26:04;3.72;;;3.42;;
12206;SDS011;6166;42.806;23.408;2022-07-29T10:28:31;4.40;;;4.00;;
12206;SDS011;6166;42.806;23.408;2022-07-29T10:30:59;3.42;;;3.22;;
12206;SDS011;6166;42.806;23.408;2022-07-29T10:33:33;4.10;;;3.80;;
12206;SDS011;6166;42.806;23.408;2022-07-29T10:36:26;3.78;;;3.38;;
12206;SDS011;6166;42.806;23.408;2022-07-29T10:39:22;3.42;;;3.22;;
12206;SDS011;6166;42.806;23.408;2022-07-29T10:42:06;4.32;;;4.03;;
12206;SDS011;6166;42.806;23.408;2022-07-29T10:44:42;2.95;;;2.75;;
12206;SDS011;6166;42.806;23.408;2022-07-29T10:47:19;4.20;;;3.92;;
12206;SDS011;6166;42.806;23.408;2022-07-29T10:49:55;3.83;;;3.53;;
12206;SDS011;6166;42.806;23.408;2022-07-29T10:52:23;4.20;;;3.80;;
12206;SDS011;6166;42.806;23.408;2022-07-29T10:54:55;3.90;;;3.60;;
12206;SDS011;6166;42.806;23.408;2022-07-29T10:57:26;4.00;;;3.70;;
12206;SDS011;6166;42.806;23.408;2022-07-29T11:02:54;3.85;;;3.55;;
12206;SDS011;6166;42.806;23.408;2022-07-29T11:05:23;4.13;;;3.80;;
12206;SDS011;6166;42.806;23.408;2022-07-29T11:10:46;3.90;;;3.60;;
12206;SDS011;6166;42.806;23.408;2022-07-29T11:16:16;4.00;;;3.80;;
12206;SDS011;6166;42.806;23.408;2022-07-29T11:21:48;4.65;;;4.25;;
12206;SDS011;6166;42.806;23.408;2022-07-29T11:24:17;5.18;;;4.78;;
12206;SDS011;6166;42.806;23.408;2022-07-29T11:27:10;7.40;;;4.72;;
12206;SDS011;6166;42.806;23.408;2022-07-29T11:29:47;5.40;;;5.00;;
12206;SDS011;6166;42.806;23.408;2022-07-29T11:32:16;5.45;;;5.00;;
12206;SDS011;6166;42.806;23.408;2022-07-29T11:34:45;4.97;;;4.57;;
12206;SDS011;6166;42.806;23.408;2022-07-29T11:37:22;5.97;;;5.47;;
12206;SDS011;6166;42.806;23.408;2022-07-29T11:42:44;5.65;;;5.25;;
12206;SDS011;6166;42.806;23.408;2022-07-29T11:45:13;5.05;;;4.65;;
12206;SDS011;6166;42.806;23.408;2022-07-29T11:47:46;5.55;;;5.13;;
12206;SDS011;6166;42.806;23.408;2022-07-29T11:50:15;4.90;;;4.50;;
12206;SDS011;6166;42.806;23.408;2022-07-29T11:52:44;5.40;;;5.00;;
12206;SDS011;6166;42.806;23.408;2022-07-29T11:55:13;6.45;;;5.85;;
12206;SDS011;6166;42.806;23.408;2022-07-29T11:57:49;5.65;;;5.20;;
12206;SDS011;6166;42.806;23.408;2022-07-29T12:00:25;5.65;;;5.07;;
12206;SDS011;6166;42.806;23.408;2022-07-29T12:03:00;5.22;;;4.75;;
12206;SDS011;6166;42.806;23.408;2022-07-29T12:05:32;5.45;;;4.57;;
12206;SDS011;6166;42.806;23.408;2022-07-29T12:08:04;5.72;;;5.32;;
12206;SDS011;6166;42.806;23.408;2022-07-29T12:10:36;5.57;;;5.10;;
12206;SDS011;6166;42.806;23.408;2022-07-29T12:13:05;6.20;;;5.70;;
12206;SDS011;6166;42.806;23.408;2022-07-29T12:15:34;6.32;;;5.28;;
12206;SDS011;6166;42.806;23.408;2022-07-29T12:18:11;6.15;;;5.65;;
12206;SDS011;6166;42.806;23.408;2022-07-29T12:20:39;5.55;;;5.15;;
12206;SDS011;6166;42.806;23.408;2022-07-29T12:23:07;5.78;;;5.35;;
12206;SDS011;6166;42.806;23.408;2022-07-29T12:25:37;5.50;;;5.10;;
12206;SDS011;6166;42.806;23.408;2022-07-29T12:28:06;7.05;;;4.85;;
12206;SDS011;6166;42.806;23.408;2022-07-29T12:30:35;5.22;;;4.90;;
12206;SDS011;6166;42.806;23.408;2022-07-29T12:33:13;6.55;;;5.05;;
12206;SDS011;6166;42.806;23.408;2022-07-29T12:35:45;4.95;;;4.55;;
12206;SDS011;6166;42.806;23.408;2022-07-29T12:38:14;5.15;;;4.75;;
12206;SDS011;6166;42.806;23.408;2022-07-29T12:40:41;5.63;;;5.10;;
12206;SDS011;6166;42.806;23.408;2022-07-29T12:43:10;5.70;;;5.20;;
12206;SDS011;6166;42.806;23.408;2022-07-29T12:45:41;6.57;;;5.53;;
12206;SDS011;6166;42.806;23.408;2022-07-29T12:48:13;5.15;;;4.75;;
12206;SDS011;6166;42.806;23.408;2022-07-29T12:50:51;5.78;;;4.85;;
12206;SDS011;6166;42.806;23.408;2022-07-29T12:53:20;5.82;;;5.43;;
12206;SDS011;6166;42.806;23.408;2022-07-29T12:55:48;6.35;;;5.03;;
12206;SDS011;6166;42.806;23.408;2022-07-29T12:58:28;5.38;;;4.88;;
12206;SDS011;6166;42.806;23.408;2022-07-29T13:01:06;5.15;;;4.70;;
12206;SDS011;6166;42.806;23.408;2022-07-29T13:03:44;5.68;;;5.20;;
12206;SDS011;6166;42.806;23.408;2022-07-29T13:06:30;5.05;;;4.72;;
12206;SDS011;6166;42.806;23.408;2022-07-29T13:09:06;5.65;;;5.07;;
12206;SDS011;6166;42.806;23.408;2022-07-29T13:11:38;5.15;;;4.75;;
12206;SDS011;6166;42.806;23.408;2022-07-29T13:14:11;5.15;;;4.75;;
12206;SDS011;6166;42.806;23.408;2022-07-29T13:19:37;5.55;;;5.05;;
12206;SDS011;6166;42.806;23.408;2022-07-29T13:22:06;5.47;;;5.07;;
12206;SDS011;6166;42.806;23.408;2022-07-29T13:24:33;5.00;;;4.70;;
12206;SDS011;6166;42.806;23.408;2022-07-29T13:27:15;5.35;;;4.88;;
12206;SDS011;6166;42.806;23.408;2022-07-29T13:29:43;5.15;;;4.75;;
12206;SDS011;6166;42.806;23.408;2022-07-29T13:32:11;5.45;;;4.93;;
12206;SDS011;6166;42.806;23.408;2022-07-29T13:34:38;5.45;;;5.05;;
12206;SDS011;6166;42.806;23.408;2022-07-29T13:37:08;5.70;;;5.30;;
12206;SDS011;6166;42.806;23.408;2022-07-29T13:39:35;4.97;;;4.57;;
12206;SDS011;6166;42.806;23.408;2022-07-29T13:42:06;5.53;;;5.13;;
12206;SDS011;6166;42.806;23.408;2022-07-29T13:44:33;5.30;;;4.90;;
12206;SDS011;6166;42.806;23.408;2022-07-29T13:47:03;5.47;;;4.97;;
12206;SDS011;6166;42.806;23.408;2022-07-29T13:49:38;5.55;;;5.15;;
12206;SDS011;6166;42.806;23.408;2022-07-29T13:52:07;6.20;;;5.00;;
12206;SDS011;6166;42.806;23.408;2022-07-29T13:54:34;5.47;;;5.07;;
12206;SDS011;6166;42.806;23.408;2022-07-29T13:57:02;5.35;;;4.85;;
12206;SDS011;6166;42.806;23.408;2022-07-29T13:59:29;5.53;;;5.13;;
12206;SDS011;6166;42.806;23.408;2022-07-29T14:01:56;5.45;;;5.10;;
12206;SDS011;6166;42.806;23.408;2022-07-29T14:04:26;5.20;;;4.53;;
12206;SDS011;6166;42.806;23.408;2022-07-29T14:06:52;5.68;;;5.25;;
12206;SDS011;6166;42.806;23.408;2022-07-29T14:09:19;5.05;;;4.65;;
12206;SDS011;6166;42.806;23.408;2022-07-29T14:11:48;5.60;;;5.18;;
12206;SDS011;6166;42.806;23.408;2022-07-29T14:14:21;5.50;;;5.10;;
12206;SDS011;6166;42.806;23.408;2022-07-29T14:16:47;7.68;;;5.35;;
12206;SDS011;6166;42.806;23.408;2022-07-29T14:19:14;5.47;;;5.07;;
12206;SDS011;6166;42.806;23.408;2022-07-29T14:21:42;4.80;;;4.47;;
12206;SDS011;6166;42.806;23.408;2022-07-29T14:24:09;5.47;;;5.00;;
12206;SDS011;6166;42.806;23.408;2022-07-29T14:26:38;5.65;;;5.25;;
12206;SDS011;6166;42.806;23.408;2022-07-29T14:29:07;5.55;;;5.05;;
12206;SDS011;6166;42.806;23.408;2022-07-29T14:31:33;5.68;;;5.18;;
12206;SDS011;6166;42.806;23.408;2022-07-29T14:34:00;5.63;;;5.13;;
12206;SDS011;6166;42.806;23.408;2022-07-29T14:36:27;6.05;;;5.65;;
12206;SDS011;6166;42.806;23.408;2022-07-29T14:38:55;5.97;;;5.47;;
12206;SDS011;6166;42.806;23.408;2022-07-29T14:41:22;5.93;;;5.43;;
12206;SDS011;6166;42.806;23.408;2022-07-29T14:43:49;5.45;;;5.03;;
12206;SDS011;6166;42.806;23.408;2022-07-29T14:46:17;5.57;;;5.10;;
12206;SDS011;6166;42.806;23.408;2022-07-29T14:48:43;5.97;;;5.18;;
12206;SDS011;6166;42.806;23.408;2022-07-29T14:51:10;5.43;;;5.03;;
12206;SDS011;6166;42.806;23.408;2022-07-29T14:53:37;5.60;;;5.15;;
12206;SDS011;6166;42.806;23.408;2022-07-29T14:56:05;5.63;;;5.13;;
12206;SDS011;6166;42.806;23.408;2022-07-29T14:58:32;6.07;;;5.57;;
12206;SDS011;6166;42.806;23.408;2022-07-29T15:00:59;6.53;;;5.93;;
12206;SDS011;6166;42.806;23.408;2022-07-29T15:03:26;6.22;;;5.57;;
12206;SDS011;6166;42.806;23.408;2022-07-29T15:05:55;5.90;;;5.28;;
12206;SDS011;6166;42.806;23.408;2022-07-29T15:08:22;5.75;;;5.25;;
12206;SDS011;6166;42.806;23.408;2022-07-29T15:10:50;5.07;;;4.78;;
12206;SDS011;6166;42.806;23.408;2022-07-29T15:13:18;5.22;;;4.93;;
12206;SDS011;6166;42.806;23.408;2022-07-29T15:15:45;5.55;;;5.05;;
12206;SDS011;6166;42.806;23.408;2022-07-29T15:18:12;4.65;;;4.15;;
12206;SDS011;6166;42.806;23.408;2022-07-29T15:20:38;5.22;;;4.72;;
12206;SDS011;6166;42.806;23.408;2022-07-29T15:23:05;4.60;;;4.30;;